createdAt,value
2022-09-04T00:00:09.430Z,11.50
2022-09-04T00:03:15.727Z,11.50
2022-09-04T00:05:51.612Z,11.40
2022-09-04T00:08:21.648Z,11.40
2022-09-04T00:11:19.216Z,11.40
2022-09-04T00:13:58.457Z,11.40
2022-09-04T00:16:43.389Z,11.40
2022-09-04T00:19:28.111Z,11.40
2022-09-04T00:22:00.751Z,11.50
2022-09-04T00:24:35.271Z,11.50
2022-09-04T00:27:23.752Z,11.50
2022-09-04T00:30:32.868Z,11.50
2022-09-04T00:33:17.756Z,11.50
2022-09-04T00:35:51.548Z,11.30
2022-09-04T00:38:24.877Z,11.40
2022-09-04T00:41:04.328Z,11.20
2022-09-04T00:44:04.186Z,11.10
2022-09-04T00:46:45.706Z,11.10
2022-09-04T00:49:37.996Z,11.00
2022-09-04T00:52:31.465Z,11.00
2022-09-04T00:55:57.346Z,10.90
2022-09-04T00:58:35.967Z,11.00
2022-09-04T01:01:03.633Z,10.90
2022-09-04T01:03:40.037Z,10.90
2022-09-04T01:06:39.408Z,10.90
2022-09-04T01:09:44.664Z,10.80
2022-09-04T01:12:53.167Z,10.90
2022-09-04T01:15:30.315Z,10.90
2022-09-04T01:18:25.173Z,10.90
2022-09-04T01:20:55.119Z,10.90
2022-09-04T01:23:52.938Z,10.90
2022-09-04T01:26:23.196Z,11.00
2022-09-04T01:29:21.174Z,11.00
2022-09-04T01:32:21.661Z,11.00
2022-09-04T01:35:09.292Z,11.00
2022-09-04T01:37:52.695Z,10.90
2022-09-04T01:40:55.180Z,11.00
2022-09-04T01:43:23.626Z,10.90
2022-09-04T01:46:08.943Z,10.80
2022-09-04T01:48:41.856Z,10.90
2022-09-04T01:51:40.193Z,10.90
2022-09-04T01:54:16.366Z,10.90
2022-09-04T01:56:51.236Z,10.80
2022-09-04T01:59:32.926Z,10.70
2022-09-04T02:02:16.063Z,10.80
2022-09-04T02:05:05.081Z,10.80
2022-09-04T02:08:02.389Z,10.80
2022-09-04T02:10:58.180Z,10.80
2022-09-04T02:14:09.063Z,10.80
2022-09-04T02:16:45.881Z,10.80
2022-09-04T02:19:43.367Z,10.90
2022-09-04T02:22:31.794Z,10.90
2022-09-04T02:24:58.822Z,10.80
2022-09-04T02:27:50.757Z,10.80
2022-09-04T02:30:19.677Z,10.80
2022-09-04T02:32:55.974Z,10.70
2022-09-04T02:35:48.028Z,10.70
2022-09-04T02:38:30.154Z,10.60
2022-09-04T02:41:28.781Z,10.60
2022-09-04T02:44:02.102Z,10.60
2022-09-04T02:46:47.820Z,10.50
2022-09-04T02:49:48.625Z,10.60
2022-09-04T02:52:27.721Z,10.50
2022-09-04T02:54:58.933Z,10.60
2022-09-04T02:57:40.839Z,10.50
2022-09-04T03:00:20.905Z,10.40
2022-09-04T03:03:03.877Z,10.30
2022-09-04T03:05:42.262Z,10.30
2022-09-04T03:08:19.579Z,10.40
2022-09-04T03:10:59.473Z,10.30
2022-09-04T03:13:47.962Z,10.30
2022-09-04T03:16:41.384Z,10.20
2022-09-04T03:19:20.462Z,10.30
2022-09-04T03:21:55.748Z,10.20
2022-09-04T03:24:28.786Z,10.20
2022-09-04T03:26:59.978Z,10.20
2022-09-04T03:29:36.468Z,10.20
2022-09-04T03:32:41.625Z,10.20
2022-09-04T03:35:18.074Z,10.10
2022-09-04T03:38:06.756Z,10.10
2022-09-04T03:40:46.040Z,10.10
2022-09-04T03:43:37.166Z,10.10
2022-09-04T03:46:22.989Z,10.20
2022-09-04T03:48:59.231Z,10.20
2022-09-04T03:51:43.771Z,10.20
2022-09-04T03:54:25.252Z,10.10
2022-09-04T03:57:09.155Z,10.10
2022-09-04T04:00:07.192Z,10.10
2022-09-04T04:02:41.550Z,10.10
2022-09-04T04:05:11.585Z,10.10
2022-09-04T04:08:04.166Z,10.10
2022-09-04T04:10:49.543Z,10.10
2022-09-04T04:13:31.696Z,10.10
2022-09-04T04:16:17.507Z,10.10
2022-09-04T04:18:57.967Z,10.10
2022-09-04T04:21:50.760Z,10.10
2022-09-04T04:24:43.805Z,10.10
2022-09-04T04:27:13.418Z,10.20
2022-09-04T04:30:16.108Z,10.30
2022-09-04T04:33:04.998Z,10.20
2022-09-04T04:35:55.089Z,10.20
2022-09-04T04:38:35.012Z,10.30
2022-09-04T04:41:05.154Z,10.40
2022-09-04T04:43:56.985Z,10.30
2022-09-04T04:46:27.475Z,10.30
2022-09-04T04:49:18.861Z,10.20
2022-09-04T04:52:16.073Z,10.20
2022-09-04T04:54:58.040Z,10.20
2022-09-04T04:57:41.428Z,10.10
2022-09-04T05:00:37.191Z,10.20
2022-09-04T05:03:43.449Z,10.10
2022-09-04T05:06:14.029Z,10.20
2022-09-04T05:09:10.470Z,10.20
2022-09-04T05:11:56.637Z,10.30
2022-09-04T05:14:41.542Z,10.50
2022-09-04T05:17:20.162Z,10.60
2022-09-04T05:20:18.662Z,10.50
2022-09-04T05:23:15.127Z,10.40
2022-09-04T05:26:12.669Z,10.30
2022-09-04T05:29:17.849Z,10.30
2022-09-04T05:32:01.569Z,10.30
2022-09-04T05:34:40.347Z,10.30
2022-09-04T05:37:20.614Z,10.40
2022-09-04T05:40:03.370Z,10.40
2022-09-04T05:43:11.917Z,10.30
2022-09-04T05:46:07.607Z,10.40
2022-09-04T05:48:43.098Z,10.50
2022-09-04T05:51:45.089Z,10.40
2022-09-04T05:54:18.591Z,10.50
2022-09-04T05:57:09.738Z,10.50
2022-09-04T05:59:58.132Z,10.50
2022-09-04T06:02:28.240Z,10.60
2022-09-04T06:05:24.132Z,10.80
2022-09-04T06:08:26.443Z,10.90
2022-09-04T06:11:20.169Z,10.90
2022-09-04T06:14:21.450Z,10.90
2022-09-04T06:16:54.529Z,10.80
2022-09-04T06:19:48.470Z,10.70
2022-09-04T06:23:03.031Z,10.60
2022-09-04T06:25:45.304Z,10.70
2022-09-04T06:28:31.409Z,10.80
2022-09-04T06:31:20.309Z,10.70
2022-09-04T06:34:09.129Z,10.80
2022-09-04T06:36:51.602Z,10.70
2022-09-04T06:39:38.233Z,10.80
2022-09-04T06:42:26.464Z,11.00
2022-09-04T06:44:56.737Z,11.50
2022-09-04T06:47:38.967Z,12.10
2022-09-04T06:50:44.081Z,12.50
2022-09-04T06:53:19.371Z,12.90
2022-09-04T06:56:06.867Z,13.50
2022-09-04T06:59:00.635Z,14.10
2022-09-04T07:02:00.754Z,14.30
2022-09-04T07:04:30.901Z,15.10
2022-09-04T07:07:10.568Z,15.20
2022-09-04T07:09:46.893Z,15.50
2022-09-04T07:12:33.857Z,15.00
2022-09-04T07:15:18.223Z,15.40
2022-09-04T07:18:18.495Z,15.00
2022-09-04T07:21:17.971Z,15.00
2022-09-04T07:24:29.965Z,14.10
2022-09-04T07:27:11.290Z,13.80
2022-09-04T07:29:49.056Z,14.60
2022-09-04T07:32:38.285Z,14.60
2022-09-04T07:35:30.026Z,14.10
2022-09-04T07:38:39.110Z,14.40
2022-09-04T07:41:46.515Z,14.50
2022-09-04T07:44:35.171Z,14.90
2022-09-04T07:47:02.232Z,14.80
2022-09-04T07:49:58.023Z,14.70
2022-09-04T07:53:03.019Z,15.00
2022-09-04T07:55:42.683Z,15.40
2022-09-04T07:58:31.725Z,15.40
2022-09-04T08:01:04.642Z,15.30
2022-09-04T08:03:54.294Z,15.30
2022-09-04T08:06:42.872Z,15.30
2022-09-04T08:09:13.036Z,15.70
2022-09-04T08:12:17.691Z,15.70
2022-09-04T08:14:46.030Z,16.80
2022-09-04T08:17:43.219Z,16.30
2022-09-04T08:20:38.674Z,16.10
2022-09-04T08:23:24.646Z,15.60
2022-09-04T08:26:04.917Z,16.50
2022-09-04T08:28:34.787Z,14.70
2022-09-04T08:31:36.890Z,15.40
2022-09-04T08:34:27.760Z,15.70
2022-09-04T08:37:26.477Z,15.80
2022-09-04T08:40:20.099Z,16.10
2022-09-04T08:43:05.305Z,15.80
2022-09-04T08:46:00.061Z,16.40
2022-09-04T08:48:51.532Z,15.50
2022-09-04T08:51:49.636Z,15.80
2022-09-04T08:54:57.390Z,15.00
2022-09-04T08:58:07.742Z,15.60
2022-09-04T09:01:13.452Z,16.10
2022-09-04T09:04:22.981Z,16.50
2022-09-04T09:07:14.451Z,15.90
2022-09-04T09:10:05.497Z,15.10
2022-09-04T09:12:57.038Z,15.80
2022-09-04T09:15:48.050Z,15.60
2022-09-04T09:18:21.139Z,16.20
2022-09-04T09:21:07.992Z,16.80
2022-09-04T09:23:39.443Z,17.20
2022-09-04T09:26:29.802Z,17.20
2022-09-04T09:29:14.699Z,16.60
2022-09-04T09:32:16.277Z,16.50
2022-09-04T09:35:02.061Z,15.90
2022-09-04T09:37:28.985Z,15.60
2022-09-04T09:40:20.017Z,15.20
2022-09-04T09:42:56.660Z,15.20
2022-09-04T09:45:36.591Z,15.00
2022-09-04T09:48:09.829Z,15.80
2022-09-04T09:50:48.972Z,16.40
2022-09-04T09:53:24.927Z,16.80
2022-09-04T09:56:26.550Z,16.00
2022-09-04T09:59:26.297Z,16.50
2022-09-04T10:02:28.875Z,16.80
2022-09-04T10:05:28.298Z,17.60
2022-09-04T10:08:36.068Z,18.80
2022-09-04T10:11:34.181Z,18.50
2022-09-04T10:14:07.234Z,17.90
2022-09-04T10:17:18.864Z,16.60
2022-09-04T10:20:13.476Z,16.20
2022-09-04T10:22:59.934Z,15.80
2022-09-04T10:25:48.348Z,16.10
2022-09-04T10:28:26.862Z,16.00
2022-09-04T10:31:29.280Z,16.10
2022-09-04T10:34:37.125Z,16.20
2022-09-04T10:37:15.901Z,16.50
2022-09-04T10:40:33.246Z,16.40
2022-09-04T10:43:18.307Z,16.40
2022-09-04T10:45:59.214Z,16.40
2022-09-04T10:48:44.317Z,16.10
2022-09-04T10:51:16.001Z,15.90
2022-09-04T10:54:07.766Z,16.20
2022-09-04T10:57:38.321Z,16.10
2022-09-04T11:00:08.274Z,16.00
2022-09-04T11:02:52.545Z,16.50
2022-09-04T11:05:53.248Z,16.00
2022-09-04T11:08:39.225Z,16.10
2022-09-04T11:11:43.723Z,16.50
2022-09-04T11:14:44.437Z,16.60
2022-09-04T11:17:42.469Z,16.80
2022-09-04T11:20:31.197Z,17.00
2022-09-04T11:23:35.681Z,16.70
2022-09-04T11:26:26.969Z,16.80
2022-09-04T11:29:17.148Z,16.70
2022-09-04T11:31:53.241Z,16.50
2022-09-04T11:34:33.634Z,17.10
2022-09-04T11:37:37.849Z,17.30
2022-09-04T11:40:25.958Z,16.80
2022-09-04T11:43:30.623Z,17.10
2022-09-04T11:46:22.229Z,16.60
2022-09-04T11:49:05.332Z,16.20
2022-09-04T11:52:00.414Z,16.00
2022-09-04T11:55:25.229Z,16.20
2022-09-04T11:57:52.173Z,16.20
2022-09-04T12:00:20.495Z,15.80
2022-09-04T12:03:06.485Z,15.50
2022-09-04T12:06:08.500Z,15.50
2022-09-04T12:09:02.737Z,15.80
2022-09-04T12:12:06.019Z,16.00
2022-09-04T12:15:07.667Z,15.90
2022-09-04T12:17:58.977Z,15.70
2022-09-04T12:20:58.209Z,15.60
2022-09-04T12:23:51.017Z,15.80
2022-09-04T12:26:33.054Z,15.90
2022-09-04T12:29:27.332Z,15.70
2022-09-04T12:32:11.088Z,15.80
2022-09-04T12:34:40.783Z,16.10
2022-09-04T12:37:36.160Z,16.60
2022-09-04T12:40:17.948Z,16.70
2022-09-04T12:43:00.365Z,17.00
2022-09-04T12:45:36.655Z,17.80
2022-09-04T12:48:23.884Z,17.80
2022-09-04T12:51:21.391Z,17.60
2022-09-04T12:54:20.905Z,17.20
2022-09-04T12:57:06.764Z,17.20
2022-09-04T12:59:42.341Z,17.30
2022-09-04T13:02:57.487Z,17.00
2022-09-04T13:05:49.843Z,16.70
2022-09-04T13:08:52.799Z,16.30
2022-09-04T13:11:31.921Z,16.40
2022-09-04T13:14:26.379Z,16.10
2022-09-04T13:17:05.840Z,16.50
2022-09-04T13:20:02.473Z,16.40
2022-09-04T13:22:50.491Z,16.00
2022-09-04T13:25:52.522Z,16.10
2022-09-04T13:28:36.128Z,16.10
2022-09-04T13:31:33.535Z,16.30
2022-09-04T13:34:08.202Z,16.10
2022-09-04T13:37:04.538Z,16.00
2022-09-04T13:39:40.562Z,15.80
2022-09-04T13:42:17.338Z,15.70
2022-09-04T13:44:59.885Z,16.00
2022-09-04T13:47:45.113Z,16.10
2022-09-04T13:50:53.835Z,16.10
2022-09-04T13:53:24.739Z,15.90
2022-09-04T13:56:10.034Z,16.10
2022-09-04T13:58:46.869Z,16.30
2022-09-04T14:01:22.664Z,16.30
2022-09-04T14:03:55.254Z,16.50
2022-09-04T14:06:26.486Z,16.50
2022-09-04T14:09:04.841Z,16.40
2022-09-04T14:11:45.547Z,16.20
2022-09-04T14:14:32.606Z,16.20
2022-09-04T14:17:00.235Z,16.60
2022-09-04T14:19:33.374Z,16.60
2022-09-04T14:22:26.492Z,16.40
2022-09-04T14:24:59.211Z,16.40
2022-09-04T14:27:26.132Z,16.50
2022-09-04T14:30:16.057Z,16.50
2022-09-04T14:33:19.462Z,16.40
2022-09-04T14:36:10.426Z,16.50
2022-09-04T14:39:14.809Z,16.30
2022-09-04T14:42:29.982Z,16.30
2022-09-04T14:45:26.385Z,16.30
2022-09-04T14:48:03.712Z,15.80
2022-09-04T14:50:43.485Z,15.80
2022-09-04T14:53:10.767Z,15.90
2022-09-04T14:56:02.494Z,15.80
2022-09-04T14:58:35.833Z,16.00
2022-09-04T15:01:08.447Z,15.80
2022-09-04T15:03:40.106Z,15.70
2022-09-04T15:06:16.335Z,15.60
2022-09-04T15:08:45.462Z,15.70
2022-09-04T15:11:35.619Z,15.80
2022-09-04T15:14:20.305Z,15.60
2022-09-04T15:16:50.798Z,15.70
2022-09-04T15:19:27.124Z,15.60
2022-09-04T15:22:11.148Z,15.60
2022-09-04T15:24:47.788Z,15.70
2022-09-04T15:27:20.818Z,15.70
2022-09-04T15:29:54.025Z,15.50
2022-09-04T15:32:20.976Z,15.60
2022-09-04T15:34:49.282Z,15.70
2022-09-04T15:37:27.419Z,15.70
2022-09-04T15:40:10.986Z,15.50
2022-09-04T15:42:55.689Z,15.90
2022-09-04T15:45:47.825Z,15.90
2022-09-04T15:48:54.120Z,15.60
2022-09-04T15:51:28.713Z,15.50
2022-09-04T15:54:24.738Z,15.70
2022-09-04T15:56:51.706Z,15.60
2022-09-04T15:59:21.441Z,15.40
2022-09-04T16:02:12.881Z,15.40
2022-09-04T16:04:53.128Z,15.40
2022-09-04T16:07:34.884Z,15.20
2022-09-04T16:10:26.969Z,15.30
2022-09-04T16:13:09.451Z,15.30
2022-09-04T16:15:43.083Z,15.40
2022-09-04T16:18:35.347Z,15.20
2022-09-04T16:21:09.841Z,15.20
2022-09-04T16:23:38.891Z,15.20
2022-09-04T16:26:18.255Z,15.00
2022-09-04T16:29:03.752Z,15.20
2022-09-04T16:31:35.934Z,15.00
2022-09-04T16:34:23.516Z,14.80
2022-09-04T16:37:10.061Z,14.90
2022-09-04T16:40:18.326Z,14.70
2022-09-04T16:42:53.535Z,14.70
2022-09-04T16:45:42.422Z,14.80
2022-09-04T16:48:34.521Z,14.70
2022-09-04T16:51:25.940Z,14.70
2022-09-04T16:54:30.942Z,14.70
2022-09-04T16:57:12.406Z,14.60
2022-09-04T16:59:46.565Z,14.70
2022-09-04T17:02:20.617Z,14.70
2022-09-04T17:05:08.634Z,14.70
2022-09-04T17:07:40.980Z,14.70
2022-09-04T17:10:22.463Z,14.70
2022-09-04T17:12:59.132Z,14.70
2022-09-04T17:15:34.796Z,14.70
2022-09-04T17:18:08.195Z,14.60
2022-09-04T17:22:08.528Z,14.60
2022-09-04T17:28:59.892Z,14.60
2022-09-04T17:29:08.058Z,14.50
2022-09-04T17:29:48.925Z,14.50
2022-09-04T17:33:01.481Z,14.50
2022-09-04T17:40:32.699Z,14.50
2022-09-04T17:40:56.467Z,14.60
2022-09-04T17:41:39.475Z,14.50
2022-09-04T17:45:00.179Z,14.50
2022-09-04T17:47:41.701Z,14.60
2022-09-04T17:50:20.374Z,14.50
2022-09-04T17:53:34.288Z,14.40
2022-09-04T17:56:14.051Z,14.30
2022-09-04T17:58:44.401Z,14.30
2022-09-04T18:01:25.351Z,14.20
2022-09-04T18:04:31.508Z,14.10
2022-09-04T18:08:09.337Z,14.10
2022-09-04T18:10:39.706Z,14.20
2022-09-04T18:13:42.112Z,14.20
2022-09-04T18:16:12.231Z,14.10
2022-09-04T18:19:20.761Z,14.00
2022-09-04T18:22:09.676Z,14.00
2022-09-04T18:25:17.708Z,13.90
2022-09-04T18:28:11.895Z,13.90
2022-09-04T18:37:05.437Z,13.80
2022-09-04T18:37:17.024Z,13.80
2022-09-04T18:37:45.826Z,13.80
2022-09-04T18:40:16.677Z,13.70
2022-09-04T18:50:21.177Z,13.70
2022-09-04T18:50:32.099Z,13.70
2022-09-04T18:50:45.625Z,13.60
2022-09-04T18:51:51.299Z,13.60
2022-09-04T18:54:49.305Z,13.60
2022-09-04T18:57:48.134Z,13.60
2022-09-04T19:00:41.447Z,13.60
2022-09-04T19:03:18.399Z,13.70
2022-09-04T19:05:50.671Z,13.70
2022-09-04T19:08:42.828Z,13.70
2022-09-04T19:11:21.180Z,13.70
2022-09-04T19:20:51.107Z,13.80
2022-09-04T19:26:55.082Z,13.60
2022-09-04T19:29:51.232Z,13.60
2022-09-04T19:32:32.282Z,13.70
2022-09-04T19:35:31.417Z,13.70
2022-09-04T19:45:55.308Z,13.70
2022-09-04T19:45:58.926Z,13.70
2022-09-04T19:46:15.288Z,13.60
2022-09-04T19:47:41.512Z,13.60
2022-09-04T19:53:21.653Z,13.70
2022-09-04T19:53:37.331Z,13.70
2022-09-04T19:56:31.052Z,13.70
2022-09-04T19:59:18.264Z,13.60
2022-09-04T20:02:02.939Z,13.70
2022-09-04T20:04:44.512Z,13.70
2022-09-04T20:08:47.872Z,13.60
2022-09-04T20:10:54.536Z,13.60
2022-09-04T20:13:44.033Z,13.70
2022-09-04T20:16:21.396Z,13.60
2022-09-04T20:18:54.876Z,13.60
2022-09-04T20:21:28.827Z,13.50
2022-09-04T20:24:08.501Z,13.50
2022-09-04T20:26:54.087Z,13.30
2022-09-04T20:29:37.862Z,13.20
2022-09-04T20:32:22.426Z,13.20
2022-09-04T20:35:40.190Z,13.20
2022-09-04T20:38:23.119Z,13.20
2022-09-04T20:40:57.934Z,13.30
2022-09-04T20:43:31.803Z,13.10
2022-09-04T20:48:25.717Z,13.10
2022-09-04T20:52:54.417Z,13.10
2022-09-04T20:53:05.902Z,13.00
2022-09-04T20:55:46.347Z,12.90
2022-09-04T21:03:05.492Z,12.80
2022-09-04T21:03:10.003Z,12.70
2022-09-04T21:04:42.075Z,12.70
2022-09-04T21:07:41.983Z,12.70
2022-09-04T21:10:27.626Z,12.70
2022-09-04T21:13:13.845Z,12.60
2022-09-04T21:15:52.491Z,12.60
2022-09-04T21:18:38.410Z,12.60
2022-09-04T21:21:40.789Z,12.60
2022-09-04T21:24:14.069Z,12.50
2022-09-04T21:27:11.903Z,12.50
2022-09-04T21:29:59.434Z,12.50
2022-09-04T21:33:27.150Z,12.40
2022-09-04T21:36:00.356Z,12.20
2022-09-04T21:39:18.595Z,12.20
2022-09-04T21:41:50.989Z,12.20
2022-09-04T21:44:39.556Z,12.20
2022-09-04T21:47:18.455Z,12.20
2022-09-04T21:50:13.650Z,12.10
2022-09-04T21:53:16.333Z,12.10
2022-09-04T21:59:04.677Z,12.10
2022-09-04T22:02:43.813Z,12.10
2022-09-04T22:02:52.562Z,12.00
2022-09-04T22:05:19.490Z,11.90
2022-09-04T22:13:33.142Z,11.90
2022-09-04T22:13:38.858Z,11.90
2022-09-04T22:13:57.373Z,11.80
2022-09-04T22:16:49.066Z,11.80
2022-09-04T22:19:31.434Z,11.90
2022-09-04T22:22:19.664Z,11.90
2022-09-04T22:25:17.235Z,12.00
2022-09-04T22:28:13.739Z,11.90
2022-09-04T22:30:55.464Z,11.90
2022-09-04T22:34:14.442Z,11.80
2022-09-04T22:36:59.125Z,11.70
2022-09-04T22:39:44.402Z,11.70
2022-09-04T22:42:23.531Z,11.60
2022-09-04T22:44:56.291Z,11.50
2022-09-04T22:47:57.722Z,11.50
2022-09-04T22:50:49.508Z,11.40
2022-09-04T22:54:02.539Z,11.40
2022-09-04T22:56:47.920Z,11.50
2022-09-04T22:59:26.642Z,11.50
2022-09-04T23:02:13.656Z,11.50
2022-09-04T23:05:09.365Z,11.50
2022-09-04T23:10:36.748Z,11.40
2022-09-04T23:13:51.281Z,11.30
2022-09-04T23:14:18.758Z,11.20
2022-09-04T23:16:58.595Z,11.20
2022-09-04T23:26:37.551Z,11.10
2022-09-04T23:26:49.986Z,11.20
2022-09-04T23:26:50.721Z,11.20
2022-09-04T23:29:40.972Z,11.20
2022-09-04T23:32:34.371Z,11.10
2022-09-04T23:35:22.459Z,11.10
2022-09-04T23:38:13.281Z,11.00
2022-09-04T23:40:42.281Z,10.90
2022-09-04T23:43:36.690Z,10.90
2022-09-04T23:46:44.210Z,10.80
2022-09-04T23:49:20.010Z,10.80
2022-09-04T23:52:27.231Z,10.70
2022-09-04T23:55:24.111Z,10.70
2022-09-04T23:58:23.118Z,10.70
